createdAt,value
2018-05-05T00:00:54.697Z,0.00
2018-05-05T00:01:54.927Z,0.00
2018-05-05T00:02:55.151Z,0.00
2018-05-05T00:03:55.382Z,0.00
2018-05-05T00:04:55.609Z,0.00
2018-05-05T00:05:55.833Z,0.00
2018-05-05T00:06:56.060Z,0.00
2018-05-05T00:07:56.287Z,0.00
2018-05-05T00:08:56.517Z,0.00
2018-05-05T00:09:56.744Z,0.00
2018-05-05T00:10:56.971Z,0.00
2018-05-05T00:11:57.202Z,0.00
2018-05-05T00:12:57.436Z,0.00
2018-05-05T00:13:57.648Z,0.00
2018-05-05T00:14:57.879Z,0.00
2018-05-05T00:15:58.105Z,0.00
2018-05-05T00:16:58.327Z,0.00
2018-05-05T00:17:58.553Z,0.00
2018-05-05T00:18:58.776Z,0.00
2018-05-05T00:19:59.010Z,0.00
2018-05-05T00:20:59.237Z,0.00
2018-05-05T00:21:59.466Z,0.00
2018-05-05T00:22:59.693Z,0.00
2018-05-05T00:23:59.923Z,0.00
2018-05-05T00:25:00.149Z,0.00
2018-05-05T00:26:00.376Z,0.00
2018-05-05T00:27:00.602Z,0.00
2018-05-05T00:28:00.830Z,0.00
2018-05-05T00:29:01.056Z,0.00
2018-05-05T00:30:01.283Z,0.00
2018-05-05T00:31:01.511Z,0.00
2018-05-05T00:32:01.735Z,0.00
2018-05-05T00:33:01.962Z,0.00
2018-05-05T00:34:02.192Z,0.00
2018-05-05T00:35:02.419Z,0.00
2018-05-05T00:36:02.644Z,0.00
2018-05-05T00:37:02.867Z,0.00
2018-05-05T00:38:03.095Z,0.00
2018-05-05T00:39:03.318Z,0.00
2018-05-05T00:40:03.553Z,0.00
2018-05-05T00:41:03.777Z,0.00
2018-05-05T00:42:04.007Z,0.00
2018-05-05T00:43:04.235Z,0.00
2018-05-05T00:44:04.466Z,0.00
2018-05-05T00:45:04.686Z,0.00
2018-05-05T00:46:04.912Z,0.00
2018-05-05T00:47:05.137Z,0.00
2018-05-05T00:48:05.364Z,0.00
2018-05-05T00:49:05.598Z,0.00
2018-05-05T00:50:05.824Z,0.00
2018-05-05T00:51:06.051Z,0.00
2018-05-05T00:52:06.284Z,0.00
2018-05-05T00:53:06.494Z,0.00
2018-05-05T00:54:06.724Z,0.00
2018-05-05T00:55:06.949Z,0.00
2018-05-05T00:56:07.180Z,0.00
2018-05-05T00:57:07.425Z,0.00
2018-05-05T00:58:07.629Z,0.00
2018-05-05T00:59:07.855Z,0.00
2018-05-05T01:00:08.083Z,0.00
2018-05-05T01:01:08.309Z,0.00
2018-05-05T01:02:08.533Z,0.00
2018-05-05T01:03:08.762Z,0.00
2018-05-05T01:04:08.991Z,0.00
2018-05-05T01:05:09.210Z,0.00
2018-05-05T01:06:09.440Z,0.00
2018-05-05T01:07:09.671Z,0.00
2018-05-05T01:08:09.900Z,0.00
2018-05-05T01:09:10.129Z,0.00
2018-05-05T01:10:10.358Z,0.00
2018-05-05T01:11:10.578Z,0.00
2018-05-05T01:12:10.822Z,0.00
2018-05-05T01:13:11.049Z,0.00
2018-05-05T01:14:11.276Z,0.00
2018-05-05T01:15:11.503Z,0.00
2018-05-05T01:16:11.744Z,0.00
2018-05-05T01:17:11.952Z,0.00
2018-05-05T01:18:12.184Z,0.00
2018-05-05T01:19:12.412Z,0.00
2018-05-05T01:20:12.634Z,0.00
2018-05-05T01:21:12.863Z,0.00
2018-05-05T01:22:13.092Z,0.00
2018-05-05T01:23:13.319Z,0.00
2018-05-05T01:24:13.546Z,0.00
2018-05-05T01:25:13.774Z,0.00
2018-05-05T01:26:14.000Z,0.00
2018-05-05T01:27:14.227Z,0.00
2018-05-05T01:28:14.454Z,0.00
2018-05-05T01:29:14.687Z,0.00
2018-05-05T01:30:14.907Z,0.00
2018-05-05T01:31:15.140Z,0.00
2018-05-05T01:32:15.366Z,0.00
2018-05-05T01:33:15.596Z,0.00
2018-05-05T01:34:15.822Z,0.00
2018-05-05T01:35:16.068Z,0.00
2018-05-05T01:36:16.297Z,0.00
2018-05-05T01:37:16.528Z,0.00
2018-05-05T01:38:16.753Z,0.00
2018-05-05T01:39:16.980Z,0.00
2018-05-05T01:40:17.209Z,0.00
2018-05-05T01:41:17.435Z,0.00
2018-05-05T01:42:17.664Z,0.00
2018-05-05T01:43:17.893Z,0.00
2018-05-05T01:44:18.123Z,0.00
2018-05-05T01:45:18.349Z,0.00
2018-05-05T01:46:18.573Z,0.00
2018-05-05T01:47:18.799Z,0.00
2018-05-05T01:48:19.026Z,0.00
2018-05-05T01:49:19.247Z,0.00
2018-05-05T01:50:19.478Z,0.00
2018-05-05T01:51:19.705Z,0.00
2018-05-05T01:52:19.932Z,0.00
2018-05-05T01:53:20.663Z,0.00
2018-05-05T01:54:20.393Z,0.00
2018-05-05T01:55:20.619Z,0.00
2018-05-05T01:56:20.842Z,0.00
2018-05-05T01:57:21.069Z,0.00
2018-05-05T01:58:21.299Z,0.00
2018-05-05T01:59:21.527Z,0.00
2018-05-05T02:00:21.752Z,0.00
2018-05-05T02:01:21.982Z,0.00
2018-05-05T02:02:22.210Z,0.00
2018-05-05T02:03:22.441Z,0.00
2018-05-05T02:04:22.661Z,0.00
2018-05-05T02:05:22.888Z,0.00
2018-05-05T02:06:23.117Z,0.00
2018-05-05T02:07:23.348Z,0.00
2018-05-05T02:08:23.568Z,0.00
2018-05-05T02:09:23.791Z,0.00
2018-05-05T02:10:24.020Z,0.00
2018-05-05T02:11:24.247Z,0.00
2018-05-05T02:12:24.492Z,0.00
2018-05-05T02:13:24.702Z,0.00
2018-05-05T02:14:24.932Z,0.00
2018-05-05T02:15:25.155Z,0.00
2018-05-05T02:16:25.376Z,0.00
2018-05-05T02:17:25.604Z,0.00
2018-05-05T02:18:25.830Z,0.00
2018-05-05T02:19:26.057Z,0.00
2018-05-05T02:20:26.282Z,0.00
2018-05-05T02:21:26.512Z,0.00
2018-05-05T02:22:26.743Z,0.00
2018-05-05T02:23:26.973Z,0.00
2018-05-05T02:24:27.203Z,0.00
2018-05-05T02:25:27.449Z,0.00
2018-05-05T02:26:27.667Z,0.00
2018-05-05T02:27:27.918Z,0.00
2018-05-05T02:28:28.123Z,0.00
2018-05-05T02:29:28.358Z,0.00
2018-05-05T02:30:28.576Z,0.00
2018-05-05T02:31:28.806Z,0.00
2018-05-05T02:32:29.030Z,0.00
2018-05-05T02:33:29.260Z,0.00
2018-05-05T02:34:29.485Z,0.00
2018-05-05T02:35:29.711Z,0.00
2018-05-05T02:36:29.937Z,0.00
2018-05-05T02:37:30.163Z,0.00
2018-05-05T02:38:30.391Z,0.00
2018-05-05T02:39:30.614Z,0.00
2018-05-05T02:40:30.841Z,0.00
2018-05-05T02:41:31.068Z,0.00
2018-05-05T02:42:31.297Z,0.00
2018-05-05T02:43:31.521Z,0.00
2018-05-05T02:44:31.750Z,0.00
2018-05-05T02:45:31.973Z,0.00
2018-05-05T02:46:32.205Z,0.00
2018-05-05T02:47:32.430Z,0.00
2018-05-05T02:48:33.170Z,0.00
2018-05-05T02:49:32.895Z,0.00
2018-05-05T02:50:33.127Z,0.00
2018-05-05T02:51:33.348Z,0.00
2018-05-05T02:52:33.571Z,0.00
2018-05-05T02:53:33.803Z,0.00
2018-05-05T02:54:34.025Z,0.00
2018-05-05T02:55:34.252Z,0.00
2018-05-05T02:56:34.478Z,0.00
2018-05-05T02:57:34.701Z,0.00
2018-05-05T02:58:34.929Z,0.00
2018-05-05T02:59:35.152Z,0.00
2018-05-05T03:00:35.382Z,4.00
2018-05-05T03:01:35.607Z,4.00
2018-05-05T03:02:35.832Z,0.00
2018-05-05T03:03:36.057Z,0.00
2018-05-05T03:04:36.284Z,0.00
2018-05-05T03:05:36.516Z,4.00
2018-05-05T03:06:36.736Z,0.00
2018-05-05T03:07:36.964Z,4.00
2018-05-05T03:08:37.195Z,4.00
2018-05-05T03:09:37.419Z,4.00
2018-05-05T03:10:37.649Z,4.00
2018-05-05T03:11:37.982Z,4.00
2018-05-05T03:12:38.103Z,8.00
2018-05-05T03:13:38.330Z,8.00
2018-05-05T03:14:38.557Z,8.00
2018-05-05T03:15:38.783Z,8.00
2018-05-05T03:16:39.013Z,8.00
2018-05-05T03:17:39.234Z,12.00
2018-05-05T03:18:39.463Z,12.00
2018-05-05T03:19:39.694Z,12.00
2018-05-05T03:20:39.924Z,16.00
2018-05-05T03:21:40.145Z,16.00
2018-05-05T03:22:40.372Z,24.00
2018-05-05T03:23:40.599Z,28.00
2018-05-05T03:24:40.831Z,28.00
2018-05-05T03:25:41.051Z,36.00
2018-05-05T03:26:41.276Z,40.00
2018-05-05T03:27:41.503Z,44.00
2018-05-05T03:28:41.735Z,48.00
2018-05-05T03:29:41.959Z,56.00
2018-05-05T03:30:42.187Z,64.00
2018-05-05T03:31:42.407Z,72.00
2018-05-05T03:32:42.630Z,80.00
2018-05-05T03:33:42.856Z,92.00
2018-05-05T03:34:43.092Z,100.00
2018-05-05T03:35:43.317Z,112.00
2018-05-05T03:36:43.542Z,124.00
2018-05-05T03:37:43.763Z,140.00
2018-05-05T03:38:43.992Z,156.00
2018-05-05T03:39:44.218Z,172.00
2018-05-05T03:40:44.445Z,192.00
2018-05-05T03:41:44.673Z,208.00
2018-05-05T03:42:44.905Z,228.00
2018-05-05T03:43:45.133Z,252.00
2018-05-05T03:44:45.357Z,272.00
2018-05-05T03:45:45.584Z,296.00
2018-05-05T03:46:45.812Z,320.00
2018-05-05T03:47:46.040Z,352.00
2018-05-05T03:48:46.268Z,380.00
2018-05-05T03:49:46.509Z,412.00
2018-05-05T03:50:46.721Z,448.00
2018-05-05T03:51:46.959Z,488.00
2018-05-05T03:52:47.188Z,524.00
2018-05-05T03:53:47.412Z,564.00
2018-05-05T03:54:47.637Z,604.00
2018-05-05T03:55:47.865Z,648.00
2018-05-05T03:56:48.090Z,696.00
2018-05-05T03:57:48.317Z,744.00
2018-05-05T03:58:48.546Z,796.00
2018-05-05T03:59:48.774Z,848.00
2018-05-05T04:00:49.005Z,920.00
2018-05-05T04:01:49.241Z,996.00
2018-05-05T04:02:49.456Z,1064.00
2018-05-05T04:03:49.684Z,1124.00
2018-05-05T04:04:49.911Z,1064.00
2018-05-05T04:05:50.140Z,1248.00
2018-05-05T04:06:50.370Z,1368.00
2018-05-05T04:07:50.595Z,1832.00
2018-05-05T04:08:50.822Z,2480.00
2018-05-05T04:09:51.126Z,3084.00
2018-05-05T04:10:51.270Z,3408.00
2018-05-05T04:11:51.497Z,3548.00
2018-05-05T04:12:51.727Z,3648.00
2018-05-05T04:13:51.952Z,3704.00
2018-05-05T04:14:52.180Z,3776.00
2018-05-05T04:15:52.405Z,3876.00
2018-05-05T04:16:52.633Z,4048.00
2018-05-05T04:17:52.863Z,4308.00
2018-05-05T04:18:53.092Z,4524.00
2018-05-05T04:19:53.318Z,4760.00
2018-05-05T04:20:53.546Z,5112.00
2018-05-05T04:21:53.773Z,5480.00
2018-05-05T04:22:54.001Z,5740.00
2018-05-05T04:23:54.232Z,5872.00
2018-05-05T04:24:54.457Z,6016.00
2018-05-05T04:25:54.684Z,6168.00
2018-05-05T04:26:54.911Z,6420.00
2018-05-05T04:27:55.141Z,6652.00
2018-05-05T04:28:55.361Z,6728.00
2018-05-05T04:29:55.601Z,6680.00
2018-05-05T04:30:55.830Z,6652.00
2018-05-05T04:31:56.055Z,6772.00
2018-05-05T04:32:56.281Z,7004.00
2018-05-05T04:33:56.511Z,7008.00
2018-05-05T04:34:56.736Z,6988.00
2018-05-05T04:35:56.968Z,7096.00
2018-05-05T04:36:57.195Z,7344.00
2018-05-05T04:37:57.427Z,7452.00
2018-05-05T04:38:57.654Z,7412.00
2018-05-05T04:39:57.880Z,7308.00
2018-05-05T04:40:58.107Z,7260.00
2018-05-05T04:41:58.340Z,7260.00
2018-05-05T04:42:58.570Z,7456.00
2018-05-05T04:43:58.799Z,7848.00
2018-05-05T04:44:59.030Z,8172.00
2018-05-05T04:45:59.259Z,8296.00
2018-05-05T04:46:59.488Z,8312.00
2018-05-05T04:47:59.716Z,8520.00
2018-05-05T04:48:59.948Z,8680.00
2018-05-05T04:50:00.176Z,8596.00
2018-05-05T04:51:00.399Z,8540.00
2018-05-05T04:52:00.633Z,8512.00
2018-05-05T04:53:00.869Z,8528.00
2018-05-05T04:54:01.091Z,8680.00
2018-05-05T04:55:01.322Z,8700.00
2018-05-05T04:56:01.552Z,8404.00
2018-05-05T04:57:01.835Z,8344.00
2018-05-05T04:58:02.019Z,8368.00
2018-05-05T04:59:02.244Z,8264.00
2018-05-05T05:00:02.474Z,8384.00
2018-05-05T05:01:02.703Z,8364.00
2018-05-05T05:02:02.936Z,8152.00
2018-05-05T05:03:03.164Z,8184.00
2018-05-05T05:04:03.398Z,8176.00
2018-05-05T05:05:03.660Z,8184.00
2018-05-05T05:06:03.863Z,8188.00
2018-05-05T05:07:04.092Z,8156.00
2018-05-05T05:08:04.325Z,8176.00
2018-05-05T05:09:04.555Z,8144.00
2018-05-05T05:10:04.792Z,8140.00
2018-05-05T05:11:05.043Z,8012.00
2018-05-05T05:12:05.251Z,7872.00
2018-05-05T05:13:05.483Z,7912.00
2018-05-05T05:14:05.714Z,8080.00
2018-05-05T05:15:05.947Z,8132.00
2018-05-05T05:16:06.176Z,8112.00
2018-05-05T05:17:06.407Z,8084.00
2018-05-05T05:18:06.638Z,8008.00
2018-05-05T05:19:06.863Z,7900.00
2018-05-05T05:20:07.096Z,7804.00
2018-05-05T05:21:07.329Z,7732.00
2018-05-05T05:22:07.561Z,7804.00
2018-05-05T05:23:07.792Z,7808.00
2018-05-05T05:24:08.023Z,7548.00
2018-05-05T05:25:08.254Z,7408.00
2018-05-05T05:26:08.484Z,7420.00
2018-05-05T05:27:08.717Z,7436.00
2018-05-05T05:28:08.948Z,7472.00
2018-05-05T05:29:09.183Z,7488.00
2018-05-05T05:30:09.414Z,7508.00
2018-05-05T05:31:09.648Z,7516.00
2018-05-05T05:32:09.878Z,7536.00
2018-05-05T05:33:10.114Z,7536.00
2018-05-05T05:34:10.348Z,7556.00
2018-05-05T05:35:10.578Z,7612.00
2018-05-05T05:36:10.808Z,7616.00
2018-05-05T05:37:11.046Z,7636.00
2018-05-05T05:38:11.269Z,7664.00
2018-05-05T05:39:11.501Z,7696.00
2018-05-05T05:40:11.736Z,7732.00
2018-05-05T05:41:11.965Z,7744.00
2018-05-05T05:42:12.198Z,7768.00
2018-05-05T05:43:12.433Z,7800.00
2018-05-05T05:44:12.667Z,7812.00
2018-05-05T05:45:12.896Z,7844.00
2018-05-05T05:46:13.132Z,7860.00
2018-05-05T05:47:13.362Z,7868.00
2018-05-05T05:48:13.588Z,7900.00
2018-05-05T05:49:13.825Z,7936.00
2018-05-05T05:50:14.058Z,7972.00
2018-05-05T05:51:14.287Z,8000.00
2018-05-05T05:52:14.526Z,8016.00
2018-05-05T05:53:14.754Z,8068.00
2018-05-05T05:54:14.987Z,8080.00
2018-05-05T05:55:15.219Z,8092.00
2018-05-05T05:56:15.447Z,8144.00
2018-05-05T05:57:15.680Z,8136.00
2018-05-05T05:58:15.902Z,8156.00
2018-05-05T05:59:16.152Z,8188.00
2018-05-05T06:00:16.387Z,8208.00
2018-05-05T06:01:16.621Z,8216.00
2018-05-05T06:02:16.851Z,8248.00
2018-05-05T06:03:17.084Z,8248.00
2018-05-05T06:04:17.320Z,8276.00
2018-05-05T06:05:17.579Z,8280.00
2018-05-05T06:06:17.783Z,8300.00
2018-05-05T06:07:18.024Z,8304.00
2018-05-05T06:08:18.253Z,8320.00
2018-05-05T06:09:18.484Z,8352.00
2018-05-05T06:10:18.718Z,8372.00
2018-05-05T06:11:18.953Z,8396.00
2018-05-05T06:12:19.181Z,8408.00
2018-05-05T06:13:19.415Z,8420.00
2018-05-05T06:14:19.649Z,8440.00
2018-05-05T06:15:19.878Z,8464.00
2018-05-05T06:16:20.110Z,8480.00
2018-05-05T06:17:20.339Z,8480.00
2018-05-05T06:18:20.573Z,8500.00
2018-05-05T06:19:20.811Z,8496.00
2018-05-05T06:20:21.037Z,8504.00
2018-05-05T06:21:21.273Z,8520.00
2018-05-05T06:22:21.507Z,8540.00
2018-05-05T06:23:21.738Z,8556.00
2018-05-05T06:24:21.973Z,8564.00
2018-05-05T06:25:22.208Z,8572.00
2018-05-05T06:26:22.440Z,8584.00
2018-05-05T06:27:22.708Z,8596.00
2018-05-05T06:28:22.907Z,8604.00
2018-05-05T06:29:23.136Z,8624.00
2018-05-05T06:30:23.368Z,8608.00
2018-05-05T06:31:23.600Z,8624.00
2018-05-05T06:32:23.838Z,8620.00
2018-05-05T06:33:24.074Z,8612.00
2018-05-05T06:34:24.305Z,8620.00
2018-05-05T06:35:24.531Z,8592.00
2018-05-05T06:36:24.758Z,8624.00
2018-05-05T06:37:24.991Z,8648.00
2018-05-05T06:38:25.224Z,8612.00
2018-05-05T06:39:25.459Z,8636.00
2018-05-05T06:40:25.689Z,8632.00
2018-05-05T06:41:25.928Z,8636.00
2018-05-05T06:42:26.163Z,8628.00
2018-05-05T06:43:26.432Z,8624.00
2018-05-05T06:44:26.627Z,8644.00
2018-05-05T06:45:26.855Z,8624.00
2018-05-05T06:46:27.096Z,8608.00
2018-05-05T06:47:27.332Z,8600.00
2018-05-05T06:48:27.559Z,8592.00
2018-05-05T06:49:27.793Z,8600.00
2018-05-05T06:50:28.023Z,8568.00
2018-05-05T06:51:28.257Z,8540.00
2018-05-05T06:52:28.489Z,8536.00
2018-05-05T06:53:28.718Z,8500.00
2018-05-05T06:54:28.954Z,8480.00
2018-05-05T06:55:29.183Z,8444.00
2018-05-05T06:56:29.419Z,8420.00
2018-05-05T06:57:29.648Z,8412.00
2018-05-05T06:58:29.879Z,8400.00
2018-05-05T06:59:30.112Z,8392.00
2018-05-05T07:00:30.341Z,8384.00
2018-05-05T07:01:30.574Z,8364.00
2018-05-05T07:02:30.807Z,8344.00
2018-05-05T07:03:31.038Z,8316.00
2018-05-05T07:04:31.269Z,8308.00
2018-05-05T07:05:31.502Z,8276.00
2018-05-05T07:06:31.735Z,8280.00
2018-05-05T07:07:31.965Z,8264.00
2018-05-05T07:08:32.198Z,8248.00
2018-05-05T07:09:32.439Z,8236.00
2018-05-05T07:10:32.663Z,8240.00
2018-05-05T07:11:32.898Z,8228.00
2018-05-05T07:12:33.126Z,8208.00
2018-05-05T07:13:33.356Z,8204.00
2018-05-05T07:14:33.588Z,8200.00
2018-05-05T07:15:33.904Z,8204.00
2018-05-05T07:16:34.048Z,8176.00
2018-05-05T07:17:34.277Z,8144.00
2018-05-05T07:18:34.530Z,8156.00
2018-05-05T07:19:34.733Z,8152.00
2018-05-05T07:20:34.957Z,8152.00
2018-05-05T07:21:35.195Z,8152.00
2018-05-05T07:22:35.432Z,8152.00
2018-05-05T07:23:35.656Z,8160.00
2018-05-05T07:24:35.890Z,8140.00
2018-05-05T07:25:36.119Z,8120.00
2018-05-05T07:26:36.352Z,8120.00
2018-05-05T07:27:36.581Z,8096.00
2018-05-05T07:28:36.806Z,8096.00
2018-05-05T07:29:37.045Z,8092.00
2018-05-05T07:30:37.276Z,8084.00
2018-05-05T07:31:37.506Z,8084.00
2018-05-05T07:32:37.730Z,8076.00
2018-05-05T07:33:37.959Z,8056.00
2018-05-05T07:34:38.191Z,8068.00
2018-05-05T07:35:38.423Z,8012.00
2018-05-05T07:36:38.644Z,8020.00
2018-05-05T07:37:38.879Z,7964.00
2018-05-05T07:38:39.107Z,7976.00
2018-05-05T07:39:39.338Z,7952.00
2018-05-05T07:40:39.568Z,7948.00
2018-05-05T07:41:39.799Z,7928.00
2018-05-05T07:42:40.029Z,7892.00
2018-05-05T07:43:40.259Z,7896.00
2018-05-05T07:44:40.493Z,7860.00
2018-05-05T07:45:40.726Z,7832.00
2018-05-05T07:46:40.952Z,7768.00
2018-05-05T07:47:41.180Z,7756.00
2018-05-05T07:48:41.411Z,7776.00
2018-05-05T07:49:41.644Z,7700.00
2018-05-05T07:50:41.874Z,7716.00
2018-05-05T07:51:42.103Z,7696.00
2018-05-05T07:52:42.334Z,7676.00
2018-05-05T07:53:42.565Z,7636.00
2018-05-05T07:54:42.790Z,7616.00
2018-05-05T07:55:43.031Z,7604.00
2018-05-05T07:56:43.259Z,7596.00
2018-05-05T07:57:43.491Z,7564.00
2018-05-05T07:58:43.733Z,7552.00
2018-05-05T07:59:43.952Z,7540.00
2018-05-05T08:00:44.188Z,7500.00
2018-05-05T08:01:44.416Z,7480.00
2018-05-05T08:02:44.646Z,7460.00
2018-05-05T08:03:44.877Z,7416.00
2018-05-05T08:04:45.109Z,7412.00
2018-05-05T08:05:45.341Z,7384.00
2018-05-05T08:06:45.568Z,7360.00
2018-05-05T08:07:45.803Z,7340.00
2018-05-05T08:08:46.031Z,7296.00
2018-05-05T08:09:46.269Z,7268.00
2018-05-05T08:10:46.498Z,7252.00
2018-05-05T08:11:46.732Z,7240.00
2018-05-05T08:12:46.960Z,7220.00
2018-05-05T08:13:47.188Z,7200.00
2018-05-05T08:14:47.420Z,7184.00
2018-05-05T08:15:47.654Z,7160.00
2018-05-05T08:16:47.887Z,7148.00
2018-05-05T08:17:48.128Z,7140.00
2018-05-05T08:18:48.347Z,7124.00
2018-05-05T08:19:48.576Z,7112.00
2018-05-05T08:20:48.809Z,7108.00
2018-05-05T08:21:49.042Z,7104.00
2018-05-05T08:22:49.307Z,7088.00
2018-05-05T08:23:49.503Z,7084.00
2018-05-05T08:24:49.735Z,7076.00
2018-05-05T08:25:49.964Z,7084.00
2018-05-05T08:26:50.195Z,7064.00
2018-05-05T08:27:50.425Z,7072.00
2018-05-05T08:28:50.655Z,7044.00
2018-05-05T08:29:50.888Z,7028.00
2018-05-05T08:30:51.115Z,7024.00
2018-05-05T08:31:51.349Z,7016.00
2018-05-05T08:32:51.577Z,7004.00
2018-05-05T08:33:51.807Z,6992.00
2018-05-05T08:34:52.041Z,6980.00
2018-05-05T08:35:52.269Z,6972.00
2018-05-05T08:36:52.500Z,6952.00
2018-05-05T08:37:52.734Z,6952.00
2018-05-05T08:38:52.967Z,6952.00
2018-05-05T08:39:53.196Z,6936.00
2018-05-05T08:40:53.424Z,6932.00
2018-05-05T08:41:53.655Z,6928.00
2018-05-05T08:42:53.886Z,6928.00
2018-05-05T08:43:54.119Z,6928.00
2018-05-05T08:44:54.347Z,6968.00
2018-05-05T08:45:54.576Z,6932.00
2018-05-05T08:46:54.807Z,6904.00
2018-05-05T08:47:55.039Z,6892.00
2018-05-05T08:48:55.271Z,6872.00
2018-05-05T08:49:55.508Z,6860.00
2018-05-05T08:50:55.737Z,6860.00
2018-05-05T08:51:55.970Z,6852.00
2018-05-05T08:52:56.203Z,6844.00
2018-05-05T08:53:56.437Z,6844.00
2018-05-05T08:54:56.669Z,6820.00
2018-05-05T08:55:56.902Z,6812.00
2018-05-05T08:56:57.110Z,6804.00
2018-05-05T08:57:57.346Z,6804.00
2018-05-05T08:58:57.582Z,6800.00
2018-05-05T08:59:57.805Z,6792.00
2018-05-05T09:00:58.035Z,6784.00
2018-05-05T09:01:58.264Z,6768.00
2018-05-05T09:02:58.556Z,6764.00
2018-05-05T09:03:58.721Z,6756.00
2018-05-05T09:04:58.956Z,6756.00
2018-05-05T09:05:59.186Z,6736.00
2018-05-05T09:06:59.417Z,6736.00
2018-05-05T09:07:59.643Z,6720.00
2018-05-05T09:08:59.873Z,6716.00
2018-05-05T09:10:00.107Z,6660.00
2018-05-05T09:11:00.336Z,6736.00
2018-05-05T09:12:00.642Z,6712.00
2018-05-05T09:13:00.796Z,6724.00
2018-05-05T09:14:01.034Z,6516.00
2018-05-05T09:15:01.260Z,6680.00
2018-05-05T09:16:01.497Z,6676.00
2018-05-05T09:17:01.722Z,6680.00
2018-05-05T09:18:01.974Z,6672.00
2018-05-05T09:19:02.177Z,6668.00
2018-05-05T09:20:02.414Z,6664.00
2018-05-05T09:21:02.739Z,6656.00
2018-05-05T09:22:02.876Z,6660.00
2018-05-05T09:23:03.116Z,6656.00
2018-05-05T09:24:03.343Z,6652.00
2018-05-05T09:25:03.572Z,6656.00
2018-05-05T09:26:03.803Z,6644.00
2018-05-05T09:27:04.038Z,6652.00
2018-05-05T09:28:04.270Z,6640.00
2018-05-05T09:29:04.498Z,6652.00
2018-05-05T09:30:04.732Z,6644.00
2018-05-05T09:31:04.966Z,6648.00
2018-05-05T09:32:05.195Z,6672.00
2018-05-05T09:33:05.428Z,6652.00
2018-05-05T09:34:05.657Z,6648.00
2018-05-05T09:35:05.892Z,6640.00
2018-05-05T09:36:06.125Z,6636.00
2018-05-05T09:37:06.356Z,6656.00
2018-05-05T09:38:06.585Z,6648.00
2018-05-05T09:39:06.819Z,6648.00
2018-05-05T09:40:07.053Z,6632.00
2018-05-05T09:41:07.283Z,6640.00
2018-05-05T09:42:07.515Z,6644.00
2018-05-05T09:43:07.760Z,6648.00
2018-05-05T09:44:07.980Z,6652.00
2018-05-05T09:45:08.214Z,6644.00
2018-05-05T09:46:08.445Z,6648.00
2018-05-05T09:47:08.680Z,6648.00
2018-05-05T09:48:08.908Z,6644.00
2018-05-05T09:49:09.142Z,6648.00
2018-05-05T09:50:09.369Z,6648.00
2018-05-05T09:51:09.605Z,6660.00
2018-05-05T09:52:09.841Z,6656.00
2018-05-05T09:53:10.083Z,6660.00
2018-05-05T09:54:10.315Z,6656.00
2018-05-05T09:55:10.542Z,6664.00
2018-05-05T09:56:10.774Z,6664.00
2018-05-05T09:57:11.008Z,6668.00
2018-05-05T09:58:11.239Z,6676.00
2018-05-05T09:59:11.471Z,6676.00
2018-05-05T10:00:11.702Z,6680.00
2018-05-05T10:01:11.932Z,6688.00
2018-05-05T10:02:12.166Z,6692.00
2018-05-05T10:03:12.397Z,6704.00
2018-05-05T10:04:12.628Z,6704.00
2018-05-05T10:05:12.861Z,6708.00
2018-05-05T10:06:13.093Z,6724.00
2018-05-05T10:07:13.329Z,6736.00
2018-05-05T10:08:13.565Z,6736.00
2018-05-05T10:09:13.790Z,6736.00
2018-05-05T10:10:14.022Z,6732.00
2018-05-05T10:11:14.258Z,6724.00
2018-05-05T10:12:14.490Z,6744.00
2018-05-05T10:13:14.725Z,6736.00
2018-05-05T10:14:14.954Z,6752.00
2018-05-05T10:15:15.183Z,6760.00
2018-05-05T10:16:15.415Z,6752.00
2018-05-05T10:17:15.649Z,6768.00
2018-05-05T10:18:15.881Z,6776.00
2018-05-05T10:19:16.112Z,6772.00
2018-05-05T10:20:16.347Z,6784.00
2018-05-05T10:21:16.573Z,6800.00
2018-05-05T10:22:16.810Z,6792.00
2018-05-05T10:23:17.034Z,6784.00
2018-05-05T10:24:17.265Z,6796.00
2018-05-05T10:25:17.499Z,6828.00
2018-05-05T10:26:17.721Z,6800.00
2018-05-05T10:27:17.958Z,6800.00
2018-05-05T10:28:18.187Z,6784.00
2018-05-05T10:29:18.408Z,6768.00
2018-05-05T10:30:18.633Z,6768.00
2018-05-05T10:31:18.866Z,6768.00
2018-05-05T10:32:19.097Z,6756.00
2018-05-05T10:33:19.328Z,6764.00
2018-05-05T10:34:19.564Z,6752.00
2018-05-05T10:35:19.797Z,6748.00
2018-05-05T10:36:20.029Z,6728.00
2018-05-05T10:37:20.262Z,6728.00
2018-05-05T10:38:20.494Z,6740.00
2018-05-05T10:39:20.815Z,6720.00
2018-05-05T10:40:20.948Z,6716.00
2018-05-05T10:41:21.176Z,6652.00
2018-05-05T10:42:21.416Z,6664.00
2018-05-05T10:43:21.646Z,6368.00
2018-05-05T10:44:21.884Z,6064.00
2018-05-05T10:45:22.111Z,6052.00
2018-05-05T10:46:22.343Z,6344.00
2018-05-05T10:47:22.584Z,6272.00
2018-05-05T10:48:22.815Z,6200.00
2018-05-05T10:49:23.041Z,6212.00
2018-05-05T10:50:23.275Z,6284.00
2018-05-05T10:51:23.642Z,6372.00
2018-05-05T10:52:23.740Z,6464.00
2018-05-05T10:53:23.972Z,6360.00
2018-05-05T10:54:24.209Z,6452.00
2018-05-05T10:55:24.478Z,6528.00
2018-05-05T10:56:24.665Z,6508.00
2018-05-05T10:57:24.900Z,6528.00
2018-05-05T10:58:25.132Z,6500.00
2018-05-05T10:59:25.363Z,6504.00
2018-05-05T11:00:25.593Z,6516.00
2018-05-05T11:01:25.898Z,6480.00
2018-05-05T11:02:26.050Z,6460.00
2018-05-05T11:03:26.291Z,6436.00
2018-05-05T11:04:26.534Z,6480.00
2018-05-05T11:05:26.748Z,6500.00
2018-05-05T11:06:26.985Z,6500.00
2018-05-05T11:07:27.214Z,6436.00
2018-05-05T11:08:27.513Z,6416.00
2018-05-05T11:09:27.669Z,6368.00
2018-05-05T11:10:27.920Z,6428.00
2018-05-05T11:11:28.151Z,6404.00
2018-05-05T11:12:28.390Z,6368.00
2018-05-05T11:13:28.619Z,6372.00
2018-05-05T11:14:28.848Z,6332.00
2018-05-05T11:15:29.080Z,6328.00
2018-05-05T11:16:29.312Z,6276.00
2018-05-05T11:17:29.545Z,6296.00
2018-05-05T11:18:29.777Z,6224.00
2018-05-05T11:19:30.015Z,6084.00
2018-05-05T11:20:30.239Z,6072.00
2018-05-05T11:21:30.473Z,6240.00
2018-05-05T11:22:30.702Z,6136.00
2018-05-05T11:23:30.939Z,6268.00
2018-05-05T11:24:31.170Z,6296.00
2018-05-05T11:25:31.401Z,6304.00
2018-05-05T11:26:31.635Z,6224.00
2018-05-05T11:27:31.869Z,6264.00
2018-05-05T11:28:32.109Z,6284.00
2018-05-05T11:29:32.328Z,6272.00
2018-05-05T11:30:32.561Z,6304.00
2018-05-05T11:31:32.795Z,6284.00
2018-05-05T11:32:33.029Z,6296.00
2018-05-05T11:33:33.266Z,6296.00
2018-05-05T11:34:33.495Z,6312.00
2018-05-05T11:35:33.730Z,6308.00
2018-05-05T11:36:33.968Z,6320.00
2018-05-05T11:37:34.192Z,6296.00
2018-05-05T11:38:34.431Z,6280.00
2018-05-05T11:39:34.654Z,6288.00
2018-05-05T11:40:34.887Z,6292.00
2018-05-05T11:41:35.119Z,6272.00
2018-05-05T11:42:35.352Z,6260.00
2018-05-05T11:43:35.581Z,6260.00
2018-05-05T11:44:35.813Z,6240.00
2018-05-05T11:45:36.049Z,6232.00
2018-05-05T11:46:36.284Z,6220.00
2018-05-05T11:47:36.518Z,6200.00
2018-05-05T11:48:36.749Z,6228.00
2018-05-05T11:49:36.981Z,6232.00
2018-05-05T11:50:37.280Z,6252.00
2018-05-05T11:51:37.446Z,6256.00
2018-05-05T11:52:37.679Z,6232.00
2018-05-05T11:53:37.909Z,6252.00
2018-05-05T11:54:38.144Z,6256.00
2018-05-05T11:55:38.373Z,6280.00
2018-05-05T11:56:38.605Z,6276.00
2018-05-05T11:57:38.838Z,6284.00
2018-05-05T11:58:39.073Z,6260.00
2018-05-05T11:59:39.307Z,6292.00
2018-05-05T12:00:39.542Z,6292.00
2018-05-05T12:01:39.828Z,6268.00
2018-05-05T12:02:40.008Z,6288.00
2018-05-05T12:03:40.245Z,6288.00
2018-05-05T12:04:40.477Z,6288.00
2018-05-05T12:05:40.711Z,6280.00
2018-05-05T12:06:40.948Z,6272.00
2018-05-05T12:07:41.178Z,6260.00
2018-05-05T12:08:41.411Z,6264.00
2018-05-05T12:09:41.647Z,6268.00
2018-05-05T12:10:41.900Z,6268.00
2018-05-05T12:11:42.110Z,6256.00
2018-05-05T12:12:42.341Z,6260.00
2018-05-05T12:13:42.574Z,6252.00
2018-05-05T12:14:42.807Z,6240.00
2018-05-05T12:15:43.039Z,6264.00
2018-05-05T12:16:43.272Z,6268.00
2018-05-05T12:17:43.509Z,6272.00
2018-05-05T12:18:43.742Z,6248.00
2018-05-05T12:19:43.973Z,6240.00
2018-05-05T12:20:44.210Z,6220.00
2018-05-05T12:21:44.439Z,6220.00
2018-05-05T12:22:44.674Z,6216.00
2018-05-05T12:23:44.905Z,6212.00
2018-05-05T12:24:45.137Z,6224.00
2018-05-05T12:25:45.376Z,6216.00
2018-05-05T12:26:45.611Z,6204.00
2018-05-05T12:27:45.844Z,6200.00
2018-05-05T12:28:46.078Z,6200.00